Time;durP1;ratioP1;P1;durP2;ratioP2;P2;SDS_P1;SDS_P2;PMS_P1;PMS_P2;Temp;Humidity;BMP_temperature;BMP_pressure;BME280_temperature;BME280_humidity;BME280_pressure;Samples;Min_cycle;Max_cycle;Signal;HPM_P1;HPM_P2
2024/01/01 00:00:28;;;;;;;42.63;26.88;;;12.00;99.90;;;;;;6246862;23;20000;-72
2024/01/01 00:02:53;;;;;;;46.22;26.05;;;12.00;99.90;;;;;;6246674;23;20000;-72
2024/01/01 00:05:19;;;;;;;41.65;27.60;;;12.00;99.90;;;;;;6246725;23;20008;-69
2024/01/01 00:07:50;;;;;;;42.33;27.80;;;12.00;99.90;;;;;;6245886;23;20011;-69
2024/01/01 00:10:17;;;;;;;43.50;26.83;;;12.00;99.90;;;;;;6246566;23;20007;-69
2024/01/01 00:12:43;;;;;;;42.53;26.58;;;11.90;99.90;;;;;;6246302;23;20008;-69
2024/01/01 00:15:09;;;;;;;43.78;28.27;;;11.90;99.90;;;;;;6246752;23;20023;-72
2024/01/01 00:17:35;;;;;;;44.63;28.05;;;11.90;99.90;;;;;;6247223;23;20308;-72
2024/01/01 00:20:01;;;;;;;45.03;28.63;;;11.90;99.90;;;;;;6246838;23;20000;-72
2024/01/01 00:22:26;;;;;;;48.58;28.73;;;11.90;99.90;;;;;;6246695;23;20000;-72
2024/01/01 00:24:52;;;;;;;45.33;29.67;;;12.00;99.90;;;;;;6246622;23;19996;-72
2024/01/01 00:27:18;;;;;;;43.00;28.58;;;11.90;99.90;;;;;;6247230;23;20004;-72
2024/01/01 00:29:44;;;;;;;45.00;29.85;;;11.90;99.90;;;;;;6247915;23;20000;-72
2024/01/01 00:32:10;;;;;;;38.55;25.52;;;11.90;99.90;;;;;;6246960;23;20012;-72
2024/01/01 00:34:36;;;;;;;47.45;27.08;;;11.90;99.90;;;;;;6247196;23;20067;-72
2024/01/01 00:44:27;;;;;;;48.83;27.55;;;11.90;99.90;;;;;;6153415;23;20103;-69
2024/01/01 01:01:04;;;;;;;36.13;13.25;;;11.90;99.90;;;;;;6072719;23;20066;-72
2024/01/01 01:03:31;;;;;;;37.92;12.68;;;11.90;99.90;;;;;;6123914;23;20522;-71
2024/01/01 01:05:58;;;;;;;25.92;11.02;;;11.90;99.90;;;;;;6098779;23;20006;-72
2024/01/01 01:08:23;;;;;;;28.15;11.43;;;12.00;99.90;;;;;;6208779;23;20327;-71
2024/01/01 01:10:50;;;;;;;20.38;10.68;;;12.00;99.90;;;;;;6188399;23;20012;-71
2024/01/01 01:13:16;;;;;;;31.40;11.13;;;12.00;99.90;;;;;;6215131;23;20016;-69
2024/01/01 01:15:42;;;;;;;31.13;11.32;;;12.00;99.90;;;;;;6215560;23;19996;-69
2024/01/01 01:18:08;;;;;;;28.33;13.13;;;12.00;99.90;;;;;;6215161;23;20059;-72
2024/01/01 01:20:34;;;;;;;32.47;15.43;;;12.00;99.90;;;;;;6214745;23;19997;-72
2024/01/01 01:23:00;;;;;;;36.92;19.52;;;12.00;99.90;;;;;;6214722;23;20080;-72
2024/01/01 01:25:25;;;;;;;41.45;22.45;;;12.00;99.90;;;;;;6215140;23;20526;-72
2024/01/01 01:27:51;;;;;;;43.25;22.30;;;11.90;99.90;;;;;;6214333;23;20007;-72
2024/01/01 01:30:17;;;;;;;31.05;12.25;;;12.00;99.90;;;;;;6215249;23;20058;-69
2024/01/01 01:32:43;;;;;;;33.55;13.02;;;12.00;99.90;;;;;;6214781;23;20023;-70
2024/01/01 01:35:09;;;;;;;33.90;13.55;;;12.00;99.90;;;;;;6213389;23;20000;-71
2024/01/01 01:37:35;;;;;;;40.08;14.65;;;12.00;99.90;;;;;;6214928;23;20465;-71
2024/01/01 01:40:01;;;;;;;38.88;15.15;;;12.00;99.90;;;;;;6215417;23;20001;-71
2024/01/01 01:42:27;;;;;;;33.50;15.98;;;12.00;99.90;;;;;;6215166;23;20005;-72
2024/01/01 01:44:52;;;;;;;40.60;16.27;;;12.00;99.90;;;;;;6214904;23;19997;-72
2024/01/01 01:47:18;;;;;;;41.95;16.50;;;12.10;99.90;;;;;;6215663;23;20032;-70
2024/01/01 01:49:44;;;;;;;34.20;16.02;;;12.00;99.90;;;;;;6188943;23;20004;-72
2024/01/01 01:52:10;;;;;;;33.50;16.73;;;12.00;99.90;;;;;;6213658;23;20012;-72
2024/01/01 01:54:37;;;;;;;46.20;17.08;;;12.00;99.90;;;;;;6212900;23;20024;-72
2024/01/01 01:57:05;;;;;;;34.88;14.90;;;12.00;99.90;;;;;;6213878;23;20067;-72
2024/01/01 01:59:31;;;;;;;39.08;14.65;;;12.10;99.90;;;;;;6211321;23;20285;-72
2024/01/01 02:01:58;;;;;;;36.90;13.80;;;12.10;99.90;;;;;;6212607;23;20046;-71
2024/01/01 02:04:24;;;;;;;40.55;11.65;;;12.10;99.90;;;;;;6213096;23;20007;-71
2024/01/01 02:06:50;;;;;;;38.75;12.25;;;12.20;99.90;;;;;;6215573;23;20111;-71
2024/01/01 02:09:16;;;;;;;34.63;10.25;;;12.20;99.90;;;;;;6215570;23;20036;-72
2024/01/01 02:11:56;;;;;;;32.70;8.55;;;12.20;99.90;;;;;;6215527;23;20004;-71
2024/01/01 02:18:08;;;;;;;27.23;7.57;;;12.30;99.90;;;;;;6153479;23;20016;-71
2024/01/01 02:25:27;;;;;;;;;;;;;;;;;;;;;
2024/01/01 02:32:02;;;;;;;32.33;19.88;;;12.20;99.90;;;;;;5972790;24;20020;-71
2024/01/01 02:34:59;;;;;;;40.08;23.38;;;11.90;99.90;;;;;;5952991;24;20012;-72
2024/01/01 02:37:26;;;;;;;36.03;25.15;;;11.80;99.90;;;;;;5983631;23;20004;-72
2024/01/01 02:39:54;;;;;;;38.92;25.05;;;11.80;99.90;;;;;;6017953;23;20334;-71
2024/01/01 02:42:20;;;;;;;42.13;26.60;;;11.70;99.90;;;;;;6169121;23;20323;-72
2024/01/01 02:44:46;;;;;;;42.08;26.98;;;11.60;99.90;;;;;;6214373;23;20008;-72
2024/01/01 02:47:12;;;;;;;42.45;27.40;;;11.50;99.90;;;;;;6214928;23;20007;-71
2024/01/01 02:49:38;;;;;;;38.63;26.23;;;11.50;99.90;;;;;;6214015;23;19997;-71
2024/01/01 02:52:04;;;;;;;45.10;27.95;;;11.50;99.90;;;;;;6214578;23;20036;-71
2024/01/01 02:54:29;;;;;;;42.60;27.73;;;11.50;99.90;;;;;;6214994;23;20000;-71
2024/01/01 02:56:55;;;;;;;45.00;29.27;;;11.40;99.90;;;;;;6240951;23;20012;-71
2024/01/01 02:59:21;;;;;;;45.42;28.25;;;11.40;99.90;;;;;;6217360;23;20079;-70
2024/01/01 03:01:47;;;;;;;41.17;28.45;;;11.40;99.90;;;;;;6245051;23;20159;-72
2024/01/01 03:04:13;;;;;;;39.45;28.90;;;11.40;99.90;;;;;;6244973;23;20032;-72
2024/01/01 03:06:38;;;;;;;46.72;29.65;;;11.30;99.90;;;;;;6244445;23;20023;-72
2024/01/01 03:09:04;;;;;;;51.47;31.88;;;11.30;99.90;;;;;;6244905;23;20012;-71
2024/01/01 03:11:30;;;;;;;47.13;31.60;;;11.30;99.90;;;;;;6244608;23;20004;-72
2024/01/01 03:13:56;;;;;;;49.88;34.67;;;11.30;99.90;;;;;;6245038;23;20008;-71
2024/01/01 03:16:22;;;;;;;48.65;33.50;;;11.30;99.90;;;;;;6245058;23;20027;-72
2024/01/01 03:18:48;;;;;;;52.95;33.95;;;11.30;99.90;;;;;;6245585;23;20004;-70
2024/01/01 03:21:15;;;;;;;52.78;34.55;;;11.30;99.90;;;;;;6244830;23;20107;-72
2024/01/01 03:23:42;;;;;;;56.63;37.13;;;11.20;99.90;;;;;;6244771;23;20087;-71
2024/01/01 03:26:09;;;;;;;57.15;36.10;;;11.20;99.90;;;;;;6245084;23;20001;-71
2024/01/01 03:28:34;;;;;;;50.80;33.97;;;11.20;99.90;;;;;;6244818;23;20481;-72
2024/01/01 03:31:00;;;;;;;46.55;31.45;;;11.20;99.90;;;;;;6244934;23;20004;-71
2024/01/01 03:33:28;;;;;;;44.67;32.38;;;11.20;99.90;;;;;;6217778;23;20016;-72
2024/01/01 03:35:53;;;;;;;46.20;33.50;;;11.20;99.90;;;;;;6244957;23;20000;-71
2024/01/01 03:38:20;;;;;;;48.53;34.30;;;11.10;99.90;;;;;;6244881;23;20326;-71
2024/01/01 03:40:46;;;;;;;53.80;35.42;;;11.10;99.90;;;;;;6245891;23;20441;-71
2024/01/01 03:43:11;;;;;;;50.53;34.97;;;11.10;99.90;;;;;;6245969;23;20000;-71
2024/01/01 03:45:37;;;;;;;55.03;36.75;;;11.10;99.90;;;;;;6245700;23;20000;-72
2024/01/01 03:48:14;;;;;;;54.95;37.35;;;11.00;99.90;;;;;;6245541;23;20442;-71
2024/01/01 03:58:05;;;;;;;53.22;36.95;;;11.10;99.90;;;;;;6151951;23;20045;-72
2024/01/01 04:08:00;;;;;;;51.22;34.55;;;11.20;99.90;;;;;;6036140;23;20015;-71
2024/01/01 04:13:44;;;;;;;51.67;33.97;;;11.20;99.90;;;;;;6033996;23;20022;-71
2024/01/01 04:16:10;;;;;;;46.08;31.85;;;11.20;99.90;;;;;;6063390;23;20386;-71
2024/01/01 04:18:36;;;;;;;46.95;30.63;;;11.20;99.90;;;;;;6123498;23;20076;-71
2024/01/01 04:21:02;;;;;;;43.42;30.63;;;11.20;99.90;;;;;;6235620;23;20403;-71
2024/01/01 04:23:27;;;;;;;43.72;30.17;;;11.20;99.90;;;;;;6246845;23;20081;-71
2024/01/01 04:25:53;;;;;;;44.38;31.17;;;11.20;99.90;;;;;;6246545;23;20446;-72
2024/01/01 04:28:19;;;;;;;43.28;30.90;;;11.20;99.90;;;;;;6246209;23;20411;-71
2024/01/01 04:30:45;;;;;;;42.90;30.85;;;11.20;99.90;;;;;;6246353;23;20047;-71
2024/01/01 04:33:10;;;;;;;44.67;30.65;;;11.20;99.90;;;;;;6246222;23;20012;-72
2024/01/01 04:35:36;;;;;;;44.42;30.23;;;11.20;99.90;;;;;;6246315;23;20076;-71
2024/01/01 04:38:02;;;;;;;41.40;29.67;;;11.10;99.90;;;;;;6219528;23;20062;-71
2024/01/01 04:40:28;;;;;;;40.47;29.33;;;11.20;99.90;;;;;;6246157;23;20492;-71
2024/01/01 04:42:55;;;;;;;44.75;29.67;;;11.10;99.90;;;;;;6246380;23;20000;-71
2024/01/01 04:45:21;;;;;;;38.88;27.63;;;11.10;99.90;;;;;;6246628;23;20461;-70
2024/01/01 04:47:47;;;;;;;35.70;25.58;;;11.10;99.90;;;;;;6246148;23;20046;-71
2024/01/01 04:50:13;;;;;;;37.88;27.88;;;11.10;99.90;;;;;;6246240;23;19996;-71
2024/01/01 04:52:41;;;;;;;36.50;26.30;;;11.10;99.90;;;;;;6245611;23;20016;-70
2024/01/01 04:55:07;;;;;;;34.67;26.52;;;11.10;99.90;;;;;;6218797;23;20023;-71
2024/01/01 04:57:32;;;;;;;37.25;27.08;;;11.10;99.90;;;;;;6246096;23;20012;-71
2024/01/01 04:59:58;;;;;;;37.72;26.63;;;11.00;99.90;;;;;;6245888;23;20086;-71
2024/01/01 05:02:24;;;;;;;33.42;25.92;;;11.00;99.90;;;;;;6246446;23;20011;-71
2024/01/01 05:04:50;;;;;;;39.55;27.80;;;11.00;99.90;;;;;;6246067;23;20004;-71
2024/01/01 05:07:15;;;;;;;36.20;27.02;;;10.90;99.90;;;;;;6246287;23;20004;-71
2024/01/01 05:09:44;;;;;;;35.53;26.98;;;10.90;99.90;;;;;;6246063;23;20004;-71
2024/01/01 05:12:13;;;;;;;35.40;25.83;;;10.90;99.90;;;;;;6246157;23;20492;-71
2024/01/01 05:14:39;;;;;;;35.65;26.25;;;10.90;99.90;;;;;;6247191;23;20314;-70
2024/01/01 05:17:05;;;;;;;34.72;25.60;;;10.90;99.90;;;;;;6246658;23;20004;-71
2024/01/01 05:19:30;;;;;;;37.28;26.00;;;10.80;99.90;;;;;;6246657;23;20031;-71
2024/01/01 05:21:58;;;;;;;32.00;23.65;;;10.80;99.90;;;;;;6246846;23;20489;-71
2024/01/01 05:24:42;;;;;;;31.85;23.85;;;10.80;99.90;;;;;;6246953;23;20335;-71
2024/01/01 05:34:00;;;;;;;35.10;24.25;;;10.80;99.90;;;;;;6094745;23;20170;-71
2024/01/01 05:47:47;;;;;;;43.00;29.40;;;10.70;99.90;;;;;;6065589;23;20025;-71
2024/01/01 05:50:14;;;;;;;43.13;30.45;;;10.60;99.90;;;;;;5981731;23;20006;-72
2024/01/01 05:52:40;;;;;;;43.85;29.42;;;10.60;99.90;;;;;;6123302;23;20413;-71
2024/01/01 05:55:06;;;;;;;39.05;29.20;;;10.50;99.90;;;;;;6149005;23;20357;-71
2024/01/01 05:57:32;;;;;;;39.83;27.60;;;10.40;99.90;;;;;;6192940;23;20093;-71
2024/01/01 05:59:58;;;;;;;40.45;30.27;;;10.40;99.90;;;;;;6246189;23;20023;-71
2024/01/01 06:02:24;;;;;;;42.50;29.55;;;10.40;99.90;;;;;;6245410;23;20019;-72
2024/01/01 06:04:49;;;;;;;42.00;28.60;;;10.40;99.90;;;;;;6245520;23;20000;-71
2024/01/01 06:07:15;;;;;;;39.13;28.15;;;10.40;99.90;;;;;;6245310;23;20007;-71
2024/01/01 06:09:41;;;;;;;40.33;28.55;;;10.40;99.90;;;;;;6245245;23;20055;-72
2024/01/01 06:12:07;;;;;;;42.47;29.13;;;10.40;99.90;;;;;;6245039;23;20016;-71
2024/01/01 06:14:32;;;;;;;47.22;30.92;;;10.40;99.90;;;;;;6244925;23;20451;-71
2024/01/01 06:16:58;;;;;;;40.22;28.08;;;10.40;99.90;;;;;;6218631;23;20015;-71
2024/01/01 06:19:24;;;;;;;40.60;29.27;;;10.40;99.90;;;;;;6218310;23;20018;-72
2024/01/01 06:21:50;;;;;;;42.42;30.13;;;10.40;99.90;;;;;;6244441;23;20013;-71
2024/01/01 06:24:15;;;;;;;42.20;28.70;;;10.40;99.90;;;;;;6244751;23;20019;-71
2024/01/01 06:26:41;;;;;;;42.05;29.55;;;10.30;99.90;;;;;;6244662;23;20011;-71
2024/01/01 06:29:07;;;;;;;42.47;30.45;;;10.30;99.90;;;;;;6244848;23;20012;-71
2024/01/01 06:31:33;;;;;;;42.80;29.50;;;10.30;99.90;;;;;;6244737;23;19996;-71
2024/01/01 06:33:58;;;;;;;41.72;29.30;;;10.30;99.90;;;;;;6244610;23;20000;-71
2024/01/01 06:36:24;;;;;;;46.60;31.75;;;10.30;99.90;;;;;;6245232;23;20000;-71
2024/01/01 06:38:50;;;;;;;41.95;29.02;;;10.30;99.90;;;;;;6245239;23;20014;-72
2024/01/01 06:41:16;;;;;;;44.88;30.27;;;10.30;99.90;;;;;;6244877;23;20007;-70
2024/01/01 06:43:42;;;;;;;47.08;28.95;;;10.30;99.90;;;;;;6245586;23;20323;-71
2024/01/01 06:46:08;;;;;;;44.78;29.45;;;10.30;99.90;;;;;;6243545;23;20004;-71
2024/01/01 06:48:34;;;;;;;42.10;30.33;;;10.30;99.90;;;;;;6245161;23;20027;-71
2024/01/01 06:50:59;;;;;;;49.97;31.75;;;10.20;99.90;;;;;;6245223;23;20000;-71
2024/01/01 06:53:25;;;;;;;53.22;33.67;;;10.20;99.90;;;;;;6245111;23;20012;-71
2024/01/01 06:55:51;;;;;;;48.97;31.73;;;10.20;99.90;;;;;;6218739;23;20016;-70
2024/01/01 06:58:17;;;;;;;55.42;32.75;;;10.30;99.90;;;;;;6245742;23;20115;-71
2024/01/01 07:00:43;;;;;;;50.40;32.00;;;10.30;99.90;;;;;;6245932;23;20473;-71
2024/01/01 07:13:13;;;;;;;46.67;29.63;;;10.30;99.90;;;;;;6245615;23;20063;-71
2024/01/01 07:19:17;;;;;;;49.90;31.17;;;10.20;99.90;;;;;;6245673;23;20056;-71
2024/01/01 07:22:08;;;;;;;50.63;30.65;;;10.20;99.90;;;;;;6195093;23;20024;-71
2024/01/01 07:28:15;;;;;;;48.40;30.23;;;10.20;99.90;;;;;;6151861;23;20009;-71
2024/01/01 07:30:41;;;;;;;44.22;28.55;;;10.20;99.90;;;;;;6152514;23;20405;-71
2024/01/01 07:33:07;;;;;;;42.38;28.50;;;10.20;99.90;;;;;;6195268;23;20019;-71
2024/01/01 07:35:33;;;;;;;45.60;28.77;;;10.30;99.90;;;;;;6244941;23;19997;-71
2024/01/01 07:38:00;;;;;;;42.03;28.17;;;10.40;99.90;;;;;;6244936;23;20004;-71
2024/01/01 07:40:26;;;;;;;43.75;28.75;;;10.30;99.90;;;;;;6217809;23;20359;-71
2024/01/01 07:42:51;;;;;;;46.00;30.15;;;10.30;99.90;;;;;;6245119;23;20007;-71
2024/01/01 07:45:17;;;;;;;44.35;29.67;;;10.30;99.90;;;;;;6244738;23;20011;-71
2024/01/01 07:47:43;;;;;;;45.38;29.35;;;10.30;99.90;;;;;;6244129;23;20000;-71
2024/01/01 07:50:09;;;;;;;39.97;27.80;;;10.30;99.90;;;;;;6243773;23;19997;-71
2024/01/01 07:52:35;;;;;;;41.15;28.23;;;10.30;99.90;;;;;;6245063;23;20047;-71
2024/01/01 07:55:00;;;;;;;41.00;28.20;;;10.30;99.90;;;;;;6246327;23;20000;-71
2024/01/01 07:57:26;;;;;;;46.42;28.85;;;10.30;99.90;;;;;;6246090;23;20000;-71
2024/01/01 07:59:55;;;;;;;41.88;28.00;;;10.30;99.90;;;;;;6246505;23;20001;-71
2024/01/01 08:02:21;;;;;;;43.22;28.38;;;10.30;99.90;;;;;;6246407;23;20004;-70
2024/01/01 08:04:47;;;;;;;37.08;25.30;;;10.20;99.90;;;;;;6246088;23;20095;-70
2024/01/01 08:07:13;;;;;;;34.50;23.15;;;10.20;99.90;;;;;;6219009;23;20011;-72
2024/01/01 08:09:38;;;;;;;31.85;20.55;;;10.20;99.90;;;;;;6246029;23;20007;-72
2024/01/01 08:12:05;;;;;;;26.58;17.70;;;10.10;99.90;;;;;;6245635;23;20089;-72
2024/01/01 08:14:30;;;;;;;29.02;19.30;;;10.10;99.90;;;;;;6246265;23;20070;-71
2024/01/01 08:16:56;;;;;;;24.67;16.90;;;10.10;99.90;;;;;;6245864;23;20438;-72
2024/01/01 08:19:22;;;;;;;24.77;16.50;;;10.10;99.90;;;;;;6246256;23;20000;-71
2024/01/01 08:21:48;;;;;;;22.52;15.65;;;10.10;99.90;;;;;;6246122;23;20046;-72
2024/01/01 08:24:14;;;;;;;25.23;17.02;;;10.20;99.90;;;;;;6246771;23;19996;-72
2024/01/01 08:26:39;;;;;;;24.95;16.77;;;10.20;99.90;;;;;;6246818;23;20004;-71
2024/01/01 08:29:05;;;;;;;25.52;16.67;;;10.20;99.90;;;;;;6247020;23;20324;-71
2024/01/01 08:31:31;;;;;;;25.65;16.80;;;10.30;99.90;;;;;;6246990;23;20434;-71
2024/01/01 08:33:57;;;;;;;22.73;15.90;;;10.30;99.90;;;;;;6246721;23;20016;-70
2024/01/01 08:36:23;;;;;;;21.85;15.75;;;10.40;99.90;;;;;;6246535;23;20496;-71
2024/01/01 08:42:41;;;;;;;16.38;12.65;;;10.30;99.90;;;;;;6124593;23;20048;-70
2024/01/01 08:52:46;;;;;;;15.50;10.77;;;10.30;99.90;;;;;;6062216;23;20027;-71
2024/01/01 08:56:14;;;;;;;16.38;10.27;;;10.30;99.90;;;;;;6030139;23;20487;-72
2024/01/01 08:58:40;;;;;;;13.02;9.60;;;10.20;99.90;;;;;;6016836;23;20022;-72
2024/01/01 09:01:09;;;;;;;14.48;10.40;;;10.20;99.90;;;;;;6094189;23;20014;-71
2024/01/01 09:03:41;;;;;;;19.05;15.80;;;10.20;99.90;;;;;;6094249;23;20006;-72
2024/01/01 09:06:07;;;;;;;15.60;11.82;;;10.10;99.90;;;;;;6094329;23;20355;-71
2024/01/01 09:08:33;;;;;;;14.55;9.90;;;10.10;99.90;;;;;;6104354;23;20425;-72
2024/01/01 09:10:59;;;;;;;12.82;9.98;;;10.10;99.90;;;;;;6246204;23;20000;-71
2024/01/01 09:13:25;;;;;;;13.90;10.73;;;10.10;99.90;;;;;;6246135;23;20038;-70
2024/01/01 09:15:50;;;;;;;13.05;10.00;;;10.10;99.90;;;;;;6246184;23;20086;-70
2024/01/01 09:18:16;;;;;;;12.35;7.88;;;10.10;99.90;;;;;;6245575;23;20445;-71
2024/01/01 09:20:42;;;;;;;10.18;7.20;;;10.10;99.90;;;;;;6218672;23;20019;-71
2024/01/01 09:23:08;;;;;;;10.10;6.78;;;10.10;99.90;;;;;;6245520;23;20004;-72
2024/01/01 09:25:37;;;;;;;8.95;6.50;;;10.10;99.90;;;;;;6245531;23;20020;-71
2024/01/01 09:28:03;;;;;;;7.60;6.30;;;10.10;99.90;;;;;;6245716;23;20380;-69
2024/01/01 09:30:29;;;;;;;8.07;5.85;;;10.10;99.90;;;;;;6245600;23;20010;-71
2024/01/01 09:32:55;;;;;;;9.02;5.32;;;10.10;99.90;;;;;;6218375;23;20431;-70
2024/01/01 09:35:20;;;;;;;8.43;5.53;;;10.10;99.90;;;;;;6242158;23;20000;-70
2024/01/01 09:37:52;;;;;;;8.90;5.25;;;10.10;99.90;;;;;;6241859;23;20018;-70
2024/01/01 09:40:19;;;;;;;6.10;4.30;;;10.10;99.90;;;;;;6244448;23;20060;-71
2024/01/01 09:42:49;;;;;;;8.88;6.10;;;10.10;99.90;;;;;;6245619;23;20504;-70
2024/01/01 09:45:15;;;;;;;7.47;4.93;;;10.20;99.90;;;;;;6246104;23;19996;-71
2024/01/01 09:47:41;;;;;;;6.50;4.65;;;10.20;99.90;;;;;;6245718;23;20000;-70
2024/01/01 09:50:08;;;;;;;5.60;4.10;;;10.20;99.90;;;;;;6219075;23;20008;-70
2024/01/01 09:52:34;;;;;;;7.57;5.30;;;10.20;99.90;;;;;;6245550;23;20423;-71
2024/01/01 09:55:00;;;;;;;9.32;5.45;;;10.20;99.90;;;;;;6245072;23;19996;-70
2024/01/01 09:57:26;;;;;;;11.20;5.45;;;10.30;99.90;;;;;;6244417;23;20016;-71
2024/01/01 09:59:52;;;;;;;6.93;5.00;;;10.30;99.90;;;;;;6243304;23;20075;-71
2024/01/01 10:02:23;;;;;;;7.30;5.15;;;10.30;99.90;;;;;;6243421;23;20035;-70
2024/01/01 10:04:49;;;;;;;5.90;4.70;;;10.40;99.90;;;;;;6242930;23;19996;-71
2024/01/01 10:07:28;;;;;;;5.55;4.15;;;10.40;99.90;;;;;;6243879;23;20028;-71
2024/01/01 10:09:54;;;;;;;4.18;3.78;;;10.40;99.90;;;;;;6243853;23;20127;-71
2024/01/01 10:12:23;;;;;;;5.40;4.10;;;10.40;99.90;;;;;;6244522;23;20031;-71
2024/01/01 10:15:01;;;;;;;7.10;4.57;;;10.40;99.90;;;;;;6246487;23;20045;-70
2024/01/01 10:25:16;;;;;;;6.38;3.78;;;10.60;99.90;;;;;;6160149;23;20039;-71
2024/01/01 10:35:33;;;;;;;6.18;2.70;;;10.70;99.90;;;;;;6064573;23;20015;-71
2024/01/01 10:40:56;;;;;;;3.85;2.38;;;10.70;99.90;;;;;;6006911;23;20015;-71
2024/01/01 10:43:27;;;;;;;3.97;2.58;;;10.80;99.90;;;;;;6082768;23;20389;-71
2024/01/01 10:46:03;;;;;;;6.57;2.53;;;10.80;99.90;;;;;;6134333;23;20378;-71
2024/01/01 10:48:34;;;;;;;41.88;28.27;;;10.90;99.90;;;;;;6243388;23;20338;-71
2024/01/01 10:51:28;;;;;;;17.80;10.57;;;10.90;99.90;;;;;;6242372;23;20005;-71
2024/01/01 10:54:19;;;;;;;20.83;12.00;;;11.00;99.90;;;;;;6244383;23;20330;-71
2024/01/01 10:56:45;;;;;;;3.50;2.33;;;11.10;99.90;;;;;;6245266;23;20012;-71
2024/01/01 10:59:17;;;;;;;3.22;1.90;;;11.10;99.90;;;;;;6245492;23;20008;-71
2024/01/01 11:01:44;;;;;;;4.25;2.50;;;11.20;99.90;;;;;;6245649;23;20327;-71
2024/01/01 11:04:12;;;;;;;5.22;3.35;;;11.20;99.90;;;;;;6245787;23;20372;-71
2024/01/01 11:06:43;;;;;;;8.93;4.00;;;11.30;99.90;;;;;;6245454;23;20434;-71
2024/01/01 11:09:21;;;;;;;4.50;3.40;;;11.30;99.90;;;;;;6245049;23;20008;-71
2024/01/01 11:11:51;;;;;;;5.20;2.88;;;11.40;99.90;;;;;;6217802;23;20012;-71
2024/01/01 11:14:42;;;;;;;3.60;2.38;;;11.40;99.90;;;;;;6241720;23;20465;-70
2024/01/01 11:17:09;;;;;;;5.05;3.30;;;11.50;99.90;;;;;;6242036;23;20443;-70
2024/01/01 11:19:41;;;;;;;2.65;2.05;;;11.50;99.90;;;;;;6243062;23;20426;-71
2024/01/01 11:22:31;;;;;;;3.95;2.47;;;11.50;99.90;;;;;;6244687;23;20004;-70
2024/01/01 11:25:02;;;;;;;7.38;2.92;;;11.50;99.90;;;;;;6218245;23;20415;-70
2024/01/01 11:27:33;;;;;;;3.78;2.40;;;11.60;99.90;;;;;;6245978;23;20000;-70
2024/01/01 11:30:09;;;;;;;6.75;1.80;;;11.60;99.90;;;;;;6247034;23;20337;-70
2024/01/01 11:32:36;;;;;;;3.08;1.60;;;11.60;99.90;;;;;;6245774;23;20381;-70
2024/01/01 11:35:08;;;;;;;3.08;1.70;;;11.70;99.90;;;;;;6245922;23;20042;-70
2024/01/01 11:37:35;;;;;;;;;;;11.70;99.90;;;;;;6246156;23;20492;-70
2024/01/01 11:40:03;;;;;;;2.72;1.67;;;11.70;99.90;;;;;;6246682;23;19900;-71
2024/01/01 11:42:29;;;;;;;3.97;2.53;;;11.70;99.90;;;;;;6246320;23;20023;-70
2024/01/01 11:45:05;;;;;;;4.28;2.90;;;11.80;99.90;;;;;;6247508;23;20075;-70
2024/01/01 11:47:31;;;;;;;5.18;3.08;;;11.80;99.90;;;;;;6246998;23;19996;-70
2024/01/01 11:50:29;;;;;;;4.25;3.10;;;11.80;99.90;;;;;;6244910;23;20079;-71
2024/01/01 11:53:01;;;;;;;4.55;2.28;;;11.80;99.90;;;;;;6236721;23;20012;-69
2024/01/01 11:55:27;;;;;;;4.72;2.33;;;11.80;99.90;;;;;;6214051;23;20782;-70
2024/01/01 11:57:53;;;;;;;3.08;2.35;;;11.90;99.90;;;;;;6215954;23;20001;-70
2024/01/01 12:00:19;;;;;;;4.20;2.15;;;11.90;99.90;;;;;;6216285;23;20001;-71
2024/01/01 12:02:45;;;;;;;4.57;2.10;;;11.90;99.90;;;;;;6215688;23;20323;-71
2024/01/01 12:05:11;;;;;;;3.00;2.20;;;11.90;99.90;;;;;;6215883;23;20418;-71
2024/01/01 12:07:36;;;;;;;3.17;2.30;;;11.90;99.90;;;;;;6216005;23;20032;-70
2024/01/01 12:10:06;;;;;;;4.47;2.25;;;11.90;99.90;;;;;;6216081;23;20046;-69
2024/01/01 12:12:34;;;;;;;4.13;2.55;;;11.90;99.90;;;;;;6215852;23;20063;-70
2024/01/01 12:15:11;;;;;;;5.07;4.13;;;12.00;99.90;;;;;;6216285;23;20000;-70
2024/01/01 12:17:49;;;;;;;3.58;2.60;;;12.00;99.90;;;;;;6216435;23;20015;-69
2024/01/01 12:20:17;;;;;;;6.97;2.67;;;12.00;99.90;;;;;;6215812;23;20277;-71
2024/01/01 12:22:43;;;;;;;2.78;2.00;;;12.00;99.90;;;;;;6216302;23;20054;-72
2024/01/01 12:25:19;;;;;;;2.47;1.92;;;12.20;99.90;;;;;;6216396;23;20014;-71
2024/01/01 12:28:06;;;;;;;3.13;2.03;;;12.30;99.90;;;;;;6215606;23;20082;-71
2024/01/01 12:30:36;;;;;;;3.55;2.00;;;12.30;99.90;;;;;;6190171;23;20009;-71
2024/01/01 12:33:04;;;;;;;3.45;2.40;;;12.30;99.90;;;;;;6216502;23;20009;-72
2024/01/01 12:35:30;;;;;;;5.97;3.83;;;12.30;99.90;;;;;;6216321;23;20339;-71
2024/01/01 12:44:39;;;;;;;3.20;1.70;;;12.40;99.90;;;;;;6123361;23;20016;-71
2024/01/01 12:57:13;;;;;;;4.57;2.40;;;12.40;99.90;;;;;;6065133;23;20099;-71
2024/01/01 13:02:54;;;;;;;6.10;3.50;;;12.30;99.90;;;;;;6065860;23;20018;-72
2024/01/01 13:05:20;;;;;;;3.05;2.55;;;12.30;99.90;;;;;;6065715;23;20029;-71
2024/01/01 13:07:46;;;;;;;3.20;2.17;;;12.30;99.90;;;;;;6086429;23;20155;-72
2024/01/01 13:10:12;;;;;;;4.20;2.30;;;12.20;99.90;;;;;;6213433;23;20028;-71
2024/01/01 13:12:38;;;;;;;3.63;2.33;;;12.20;99.90;;;;;;6212879;23;20017;-71
2024/01/01 13:15:04;;;;;;;9.93;8.07;;;12.20;99.90;;;;;;6213251;23;20001;-71
2024/01/01 13:17:31;;;;;;;3.95;2.60;;;;;;;;;;6221967;23;20008;-71
2024/01/01 13:19:56;;;;;;;7.28;3.40;;;12.20;99.90;;;;;;6245838;23;20083;-71
2024/01/01 13:22:24;;;;;;;10.07;6.05;;;12.10;99.90;;;;;;6219047;23;20373;-71
2024/01/01 13:24:50;;;;;;;4.00;2.83;;;12.20;99.90;;;;;;6246315;23;20007;-71
2024/01/01 13:27:19;;;;;;;3.08;2.55;;;12.10;99.90;;;;;;6245786;23;20004;-72
2024/01/01 13:29:45;;;;;;;4.03;2.65;;;12.10;99.90;;;;;;6245643;23;20438;-71
2024/01/01 13:32:11;;;;;;;4.25;2.47;;;12.10;99.90;;;;;;6245851;23;20008;-71
2024/01/01 13:34:36;;;;;;;2.88;2.15;;;12.10;99.90;;;;;;6245868;23;20056;-71
2024/01/01 13:37:02;;;;;;;4.30;2.40;;;12.10;99.90;;;;;;6245974;23;20000;-71
2024/01/01 13:39:28;;;;;;;3.20;2.17;;;12.10;99.90;;;;;;6246050;23;19996;-71
2024/01/01 13:41:54;;;;;;;3.50;1.95;;;12.00;99.90;;;;;;6245512;23;20000;-72
2024/01/01 13:44:20;;;;;;;3.22;2.40;;;12.00;99.90;;;;;;6245669;23;20000;-72
2024/01/01 13:46:45;;;;;;;4.13;3.05;;;12.00;99.90;;;;;;6246100;23;20056;-72
2024/01/01 13:49:11;;;;;;;4.55;3.45;;;12.00;99.90;;;;;;6218719;23;20016;-73
2024/01/01 13:51:37;;;;;;;7.32;4.50;;;12.00;99.90;;;;;;6245770;23;20333;-73
2024/01/01 13:54:03;;;;;;;5.35;3.95;;;11.90;99.90;;;;;;6245600;23;20016;-72
2024/01/01 13:56:29;;;;;;;9.90;6.43;;;12.00;99.90;;;;;;6245952;23;20007;-73
2024/01/01 13:58:55;;;;;;;9.82;6.82;;;11.90;99.90;;;;;;6245060;23;20058;-71
2024/01/01 14:01:20;;;;;;;7.15;5.10;;;11.90;99.90;;;;;;6246624;23;20458;-71
2024/01/01 14:03:46;;;;;;;6.78;4.63;;;11.80;99.90;;;;;;6246347;23;20438;-71
2024/01/01 14:06:12;;;;;;;6.40;4.43;;;11.90;99.90;;;;;;6245985;23;20031;-71
2024/01/01 14:08:42;;;;;;;6.72;4.18;;;11.90;99.90;;;;;;6246257;23;20024;-72
2024/01/01 14:21:48;;;;;;;6.72;5.05;;;11.70;99.90;;;;;;6093269;23;20011;-71
2024/01/01 14:27:34;;;;;;;4.55;3.20;;;11.70;99.90;;;;;;6094227;23;20017;-71
2024/01/01 14:29:59;;;;;;;5.00;3.17;;;11.70;99.90;;;;;;6068267;23;20014;-71
2024/01/01 14:33:42;;;;;;;5.30;4.20;;;11.70;99.90;;;;;;6201060;23;20377;-71
2024/01/01 14:36:07;;;;;;;12.30;7.50;;;11.70;99.90;;;;;;6193910;23;20004;-71
2024/01/01 14:38:34;;;;;;;10.07;5.72;;;11.60;99.90;;;;;;6245613;23;20337;-71
2024/01/01 14:41:02;;;;;;;5.90;3.28;;;11.60;99.90;;;;;;6245378;23;20311;-71
2024/01/01 14:43:28;;;;;;;3.45;2.63;;;11.60;99.90;;;;;;6245308;23;20271;-71
2024/01/01 14:45:53;;;;;;;4.43;2.85;;;11.50;99.90;;;;;;6245337;23;19996;-74
2024/01/01 14:48:20;;;;;;;6.22;2.83;;;11.50;99.90;;;;;;6245371;23;20004;-71
2024/01/01 14:50:48;;;;;;;3.67;2.80;;;11.50;99.90;;;;;;6244993;23;20010;-71
2024/01/01 14:53:14;;;;;;;5.03;3.25;;;11.40;99.90;;;;;;6245067;23;20038;-71
2024/01/01 14:55:40;;;;;;;6.90;2.85;;;11.40;99.90;;;;;;6245106;23;20043;-68
2024/01/01 14:58:06;;;;;;;5.22;3.58;;;11.30;99.90;;;;;;6244969;23;20004;-69
2024/01/01 15:00:32;;;;;;;5.32;4.13;;;11.30;99.90;;;;;;6244790;23;20415;-71
2024/01/01 15:02:58;;;;;;;5.30;4.07;;;11.30;99.90;;;;;;6244941;23;20000;-70
2024/01/01 15:05:25;;;;;;;6.80;5.25;;;11.20;99.90;;;;;;6244726;23;20665;-69
2024/01/01 15:07:51;;;;;;;8.30;5.75;;;11.20;99.90;;;;;;6243194;23;20004;-71
2024/01/01 15:10:17;;;;;;;10.73;6.15;;;11.10;99.90;;;;;;6240722;23;20070;-72